Terminal Aerodrome Forecast
Issued by NWS Upton, NY

Home | Current Version | Previous Version | Text Only | Print | Product List | Glossary On
Versions: 1 2 3 4 5 6 7 8 9 10 11 12 13 14 15 16 17 18 19 20 21 22 23 24 25 26 27 28 29
000
FTUS41 KOKX 042341
TAFLGA
TAF
KLGA 042341Z 0500/0524 27012G19KT P6SM FEW070
     FM050200 27009KT P6SM SCT250
     FM050400 28007KT P6SM SCT250
     FM050600 27004KT P6SM SCT250
     FM050800 31005KT P6SM SCT250
     FM051500 30010KT P6SM SCT040
     FM051700 28011G18KT P6SM SCT050
     FM052000 30014G21KT P6SM SCT050=

USA.gov is the U.S. government's official web portal to all federal, state and local government web resources and services.